sensor_id;sensor_type;location;lat;lon;timestamp;temperature;humidity
9768;DHT22;4923;52.520;13.494;2022-12-18T00:00:45;-3.40;5.80
9768;DHT22;4923;52.520;13.494;2022-12-18T00:03:33;-3.50;3.10
9768;DHT22;4923;52.520;13.494;2022-12-18T00:06:20;-3.40;3.80
9768;DHT22;4923;52.520;13.494;2022-12-18T00:09:08;-3.50;5.10
9768;DHT22;4923;52.520;13.494;2022-12-18T00:11:56;-3.60;2.10
9768;DHT22;4923;52.520;13.494;2022-12-18T00:14:43;-3.70;1.00
9768;DHT22;4923;52.520;13.494;2022-12-18T00:17:30;-3.80;1.00
9768;DHT22;4923;52.520;13.494;2022-12-18T00:20:17;-3.70;3.10
9768;DHT22;4923;52.520;13.494;2022-12-18T00:23:11;-3.70;1.80
9768;DHT22;4923;52.520;13.494;2022-12-18T00:25:59;-3.70;1.10
9768;DHT22;4923;52.520;13.494;2022-12-18T00:28:48;-3.70;1.70
9768;DHT22;4923;52.520;13.494;2022-12-18T00:31:36;-3.70;1.10
9768;DHT22;4923;52.520;13.494;2022-12-18T00:34:24;-3.70;1.80
9768;DHT22;4923;52.520;13.494;2022-12-18T00:37:10;-3.70;1.20
9768;DHT22;4923;52.520;13.494;2022-12-18T00:39:57;-3.70;1.00
9768;DHT22;4923;52.520;13.494;2022-12-18T00:42:44;-3.70;1.00
9768;DHT22;4923;52.520;13.494;2022-12-18T00:45:43;-3.70;1.00
9768;DHT22;4923;52.520;13.494;2022-12-18T00:48:30;-3.70;1.00
9768;DHT22;4923;52.520;13.494;2022-12-18T00:51:17;-3.80;1.00
9768;DHT22;4923;52.520;13.494;2022-12-18T00:54:04;-3.80;1.00
9768;DHT22;4923;52.520;13.494;2022-12-18T00:56:51;-3.90;1.00
9768;DHT22;4923;52.520;13.494;2022-12-18T00:59:38;-4.00;1.00
9768;DHT22;4923;52.520;13.494;2022-12-18T01:02:26;-4.00;1.00
9768;DHT22;4923;52.520;13.494;2022-12-18T01:05:13;-4.00;1.00
9768;DHT22;4923;52.520;13.494;2022-12-18T01:08:00;-3.90;1.00
9768;DHT22;4923;52.520;13.494;2022-12-18T01:10:47;-4.00;1.00
9768;DHT22;4923;52.520;13.494;2022-12-18T01:13:34;-4.00;1.00
9768;DHT22;4923;52.520;13.494;2022-12-18T01:16:21;-4.10;1.00
9768;DHT22;4923;52.520;13.494;2022-12-18T01:19:10;-4.10;1.00
9768;DHT22;4923;52.520;13.494;2022-12-18T01:21:57;-4.20;1.00
9768;DHT22;4923;52.520;13.494;2022-12-18T01:24:44;-4.10;1.00
9768;DHT22;4923;52.520;13.494;2022-12-18T01:27:32;-4.10;1.00
9768;DHT22;4923;52.520;13.494;2022-12-18T01:30:19;-4.20;1.00
9768;DHT22;4923;52.520;13.494;2022-12-18T01:33:06;-4.20;1.00
9768;DHT22;4923;52.520;13.494;2022-12-18T01:35:54;-4.20;1.00
9768;DHT22;4923;52.520;13.494;2022-12-18T01:38:41;-4.30;1.00
9768;DHT22;4923;52.520;13.494;2022-12-18T01:41:29;-4.20;1.00
9768;DHT22;4923;52.520;13.494;2022-12-18T01:45:03;-4.10;1.00
9768;DHT22;4923;52.520;13.494;2022-12-18T01:47:52;-4.10;1.00
9768;DHT22;4923;52.520;13.494;2022-12-18T01:50:42;-4.00;1.00
9768;DHT22;4923;52.520;13.494;2022-12-18T01:53:30;-4.10;1.00
9768;DHT22;4923;52.520;13.494;2022-12-18T01:56:19;-4.10;1.00
9768;DHT22;4923;52.520;13.494;2022-12-18T01:59:09;-4.10;1.00
9768;DHT22;4923;52.520;13.494;2022-12-18T02:01:57;-4.10;1.00
9768;DHT22;4923;52.520;13.494;2022-12-18T02:04:44;-4.10;1.00
9768;DHT22;4923;52.520;13.494;2022-12-18T02:07:38;-4.20;1.00
9768;DHT22;4923;52.520;13.494;2022-12-18T02:10:35;-4.10;1.00
9768;DHT22;4923;52.520;13.494;2022-12-18T02:13:30;-4.10;1.00
9768;DHT22;4923;52.520;13.494;2022-12-18T02:16:23;-4.00;1.00
9768;DHT22;4923;52.520;13.494;2022-12-18T02:19:27;-4.00;1.00
9768;DHT22;4923;52.520;13.494;2022-12-18T02:22:27;-4.00;1.00
9768;DHT22;4923;52.520;13.494;2022-12-18T02:25:25;-4.00;1.00
9768;DHT22;4923;52.520;13.494;2022-12-18T02:28:19;-3.90;1.00
9768;DHT22;4923;52.520;13.494;2022-12-18T02:31:10;-3.90;1.00
9768;DHT22;4923;52.520;13.494;2022-12-18T02:34:01;-3.90;1.00
9768;DHT22;4923;52.520;13.494;2022-12-18T02:36:50;-3.90;1.00
9768;DHT22;4923;52.520;13.494;2022-12-18T02:39:41;-4.00;1.00
9768;DHT22;4923;52.520;13.494;2022-12-18T02:42:28;-3.90;1.00
9768;DHT22;4923;52.520;13.494;2022-12-18T02:45:16;-4.00;1.00
9768;DHT22;4923;52.520;13.494;2022-12-18T02:48:04;-4.00;1.00
9768;DHT22;4923;52.520;13.494;2022-12-18T02:50:55;-4.00;1.00
9768;DHT22;4923;52.520;13.494;2022-12-18T02:53:50;-4.10;1.00
9768;DHT22;4923;52.520;13.494;2022-12-18T02:56:42;-4.10;1.00
9768;DHT22;4923;52.520;13.494;2022-12-18T02:59:36;-4.10;1.00
9768;DHT22;4923;52.520;13.494;2022-12-18T03:02:31;-4.20;1.00
9768;DHT22;4923;52.520;13.494;2022-12-18T03:05:23;-4.30;1.00
9768;DHT22;4923;52.520;13.494;2022-12-18T03:08:15;-4.30;1.00
9768;DHT22;4923;52.520;13.494;2022-12-18T03:11:07;-4.30;1.00
9768;DHT22;4923;52.520;13.494;2022-12-18T03:13:57;-4.30;1.00
9768;DHT22;4923;52.520;13.494;2022-12-18T03:16:46;-4.20;1.00
9768;DHT22;4923;52.520;13.494;2022-12-18T03:19:36;-4.30;1.00
9768;DHT22;4923;52.520;13.494;2022-12-18T03:22:27;-4.30;1.00
9768;DHT22;4923;52.520;13.494;2022-12-18T03:25:16;-4.20;1.00
9768;DHT22;4923;52.520;13.494;2022-12-18T03:28:05;-4.20;1.00
9768;DHT22;4923;52.520;13.494;2022-12-18T03:30:56;-4.20;1.00
9768;DHT22;4923;52.520;13.494;2022-12-18T03:33:47;-4.20;1.00
9768;DHT22;4923;52.520;13.494;2022-12-18T03:36:39;-4.20;1.00
9768;DHT22;4923;52.520;13.494;2022-12-18T03:39:26;-4.30;1.00
9768;DHT22;4923;52.520;13.494;2022-12-18T03:42:16;-4.30;1.00
9768;DHT22;4923;52.520;13.494;2022-12-18T03:45:10;-4.40;1.00
9768;DHT22;4923;52.520;13.494;2022-12-18T03:48:01;-4.50;1.00
9768;DHT22;4923;52.520;13.494;2022-12-18T03:50:56;-4.60;1.00
9768;DHT22;4923;52.520;13.494;2022-12-18T03:53:47;-4.50;1.00
9768;DHT22;4923;52.520;13.494;2022-12-18T03:56:39;-4.50;1.00
9768;DHT22;4923;52.520;13.494;2022-12-18T03:59:29;-4.50;1.00
9768;DHT22;4923;52.520;13.494;2022-12-18T04:02:17;-4.60;1.00
9768;DHT22;4923;52.520;13.494;2022-12-18T04:05:07;-4.60;1.00
9768;DHT22;4923;52.520;13.494;2022-12-18T04:07:55;-4.60;1.00
9768;DHT22;4923;52.520;13.494;2022-12-18T04:10:44;-4.70;1.00
9768;DHT22;4923;52.520;13.494;2022-12-18T04:13:35;-4.70;1.00
9768;DHT22;4923;52.520;13.494;2022-12-18T04:16:21;-4.80;1.00
9768;DHT22;4923;52.520;13.494;2022-12-18T04:19:08;-4.80;1.00
9768;DHT22;4923;52.520;13.494;2022-12-18T04:21:55;-4.90;1.00
9768;DHT22;4923;52.520;13.494;2022-12-18T04:24:42;-4.80;1.00
9768;DHT22;4923;52.520;13.494;2022-12-18T04:27:30;-4.70;1.00
9768;DHT22;4923;52.520;13.494;2022-12-18T04:30:17;-4.60;1.00
9768;DHT22;4923;52.520;13.494;2022-12-18T04:33:05;-4.70;1.00
9768;DHT22;4923;52.520;13.494;2022-12-18T04:35:54;-4.60;1.00
9768;DHT22;4923;52.520;13.494;2022-12-18T04:38:41;-4.60;1.00
9768;DHT22;4923;52.520;13.494;2022-12-18T04:41:28;-4.50;1.00
9768;DHT22;4923;52.520;13.494;2022-12-18T04:44:16;-4.50;1.00
9768;DHT22;4923;52.520;13.494;2022-12-18T04:47:03;-4.50;1.00
9768;DHT22;4923;52.520;13.494;2022-12-18T04:49:50;-4.50;1.00
9768;DHT22;4923;52.520;13.494;2022-12-18T04:52:37;-4.50;1.00
9768;DHT22;4923;52.520;13.494;2022-12-18T04:55:24;-4.50;1.00
9768;DHT22;4923;52.520;13.494;2022-12-18T04:58:10;-4.60;1.00
9768;DHT22;4923;52.520;13.494;2022-12-18T05:00:59;-4.60;1.00
9768;DHT22;4923;52.520;13.494;2022-12-18T05:03:46;-4.60;1.00
9768;DHT22;4923;52.520;13.494;2022-12-18T05:06:33;-4.60;1.00
9768;DHT22;4923;52.520;13.494;2022-12-18T05:09:20;-4.70;1.00
9768;DHT22;4923;52.520;13.494;2022-12-18T05:12:07;-4.70;1.00
9768;DHT22;4923;52.520;13.494;2022-12-18T05:14:54;-4.80;1.00
9768;DHT22;4923;52.520;13.494;2022-12-18T05:17:42;-4.80;1.00
9768;DHT22;4923;52.520;13.494;2022-12-18T05:20:30;-4.80;1.00
9768;DHT22;4923;52.520;13.494;2022-12-18T05:23:18;-4.90;1.00
9768;DHT22;4923;52.520;13.494;2022-12-18T05:26:05;-4.90;1.00
9768;DHT22;4923;52.520;13.494;2022-12-18T05:28:53;-4.90;1.00
9768;DHT22;4923;52.520;13.494;2022-12-18T05:31:43;-4.80;1.00
9768;DHT22;4923;52.520;13.494;2022-12-18T05:34:31;-4.80;1.00
9768;DHT22;4923;52.520;13.494;2022-12-18T05:37:19;-4.90;1.00
9768;DHT22;4923;52.520;13.494;2022-12-18T05:40:07;-4.80;1.00
9768;DHT22;4923;52.520;13.494;2022-12-18T05:42:54;-4.80;1.00
9768;DHT22;4923;52.520;13.494;2022-12-18T05:45:41;-4.80;1.00
9768;DHT22;4923;52.520;13.494;2022-12-18T05:48:28;-4.70;1.00
9768;DHT22;4923;52.520;13.494;2022-12-18T05:51:18;-4.70;1.00
9768;DHT22;4923;52.520;13.494;2022-12-18T05:54:05;-4.60;1.00
9768;DHT22;4923;52.520;13.494;2022-12-18T05:56:52;-4.70;1.00
9768;DHT22;4923;52.520;13.494;2022-12-18T05:59:39;-4.70;1.00
9768;DHT22;4923;52.520;13.494;2022-12-18T06:02:26;-4.70;1.00
9768;DHT22;4923;52.520;13.494;2022-12-18T06:05:13;-4.60;1.00
9768;DHT22;4923;52.520;13.494;2022-12-18T06:08:01;-4.60;1.00
9768;DHT22;4923;52.520;13.494;2022-12-18T06:10:51;-4.50;1.00
9768;DHT22;4923;52.520;13.494;2022-12-18T06:13:39;-4.40;1.00
9768;DHT22;4923;52.520;13.494;2022-12-18T06:16:26;-4.40;1.00
9768;DHT22;4923;52.520;13.494;2022-12-18T06:19:15;-4.40;1.00
9768;DHT22;4923;52.520;13.494;2022-12-18T06:22:02;-4.30;1.00
9768;DHT22;4923;52.520;13.494;2022-12-18T06:24:50;-4.30;1.00
9768;DHT22;4923;52.520;13.494;2022-12-18T06:27:37;-4.30;1.00
9768;DHT22;4923;52.520;13.494;2022-12-18T06:30:24;-4.20;1.00
9768;DHT22;4923;52.520;13.494;2022-12-18T06:33:11;-4.40;1.00
9768;DHT22;4923;52.520;13.494;2022-12-18T06:36:00;-4.40;1.00
9768;DHT22;4923;52.520;13.494;2022-12-18T06:38:46;-4.40;1.00
9768;DHT22;4923;52.520;13.494;2022-12-18T06:41:35;-4.40;1.00
9768;DHT22;4923;52.520;13.494;2022-12-18T06:44:22;-4.40;1.00
9768;DHT22;4923;52.520;13.494;2022-12-18T06:47:09;-4.40;1.00
9768;DHT22;4923;52.520;13.494;2022-12-18T06:49:56;-4.40;1.00
9768;DHT22;4923;52.520;13.494;2022-12-18T06:52:43;-4.40;1.00
9768;DHT22;4923;52.520;13.494;2022-12-18T06:55:29;-4.40;1.00
9768;DHT22;4923;52.520;13.494;2022-12-18T06:58:17;-4.40;1.00
9768;DHT22;4923;52.520;13.494;2022-12-18T07:01:07;-4.40;1.00
9768;DHT22;4923;52.520;13.494;2022-12-18T07:03:55;-4.40;1.00
9768;DHT22;4923;52.520;13.494;2022-12-18T07:06:42;-4.40;1.00
9768;DHT22;4923;52.520;13.494;2022-12-18T07:09:29;-4.40;1.00
9768;DHT22;4923;52.520;13.494;2022-12-18T07:12:16;-4.50;1.00
9768;DHT22;4923;52.520;13.494;2022-12-18T07:15:06;-4.50;1.00
9768;DHT22;4923;52.520;13.494;2022-12-18T07:17:53;-4.50;1.00
9768;DHT22;4923;52.520;13.494;2022-12-18T07:20:40;-4.60;1.00
9768;DHT22;4923;52.520;13.494;2022-12-18T07:23:27;-4.60;1.00
9768;DHT22;4923;52.520;13.494;2022-12-18T07:26:15;-4.60;1.00
9768;DHT22;4923;52.520;13.494;2022-12-18T07:29:02;-4.50;1.00
9768;DHT22;4923;52.520;13.494;2022-12-18T07:31:51;-4.50;1.00
9768;DHT22;4923;52.520;13.494;2022-12-18T07:34:37;-4.60;1.00
9768;DHT22;4923;52.520;13.494;2022-12-18T07:37:24;-4.60;1.00
9768;DHT22;4923;52.520;13.494;2022-12-18T07:40:12;-4.50;1.00
9768;DHT22;4923;52.520;13.494;2022-12-18T07:42:58;-4.40;1.00
9768;DHT22;4923;52.520;13.494;2022-12-18T07:45:48;-4.30;1.00
9768;DHT22;4923;52.520;13.494;2022-12-18T07:48:37;-4.30;1.00
9768;DHT22;4923;52.520;13.494;2022-12-18T07:51:24;-4.50;1.00
9768;DHT22;4923;52.520;13.494;2022-12-18T07:54:11;-4.50;1.00
9768;DHT22;4923;52.520;13.494;2022-12-18T07:56:57;-4.40;1.00
9768;DHT22;4923;52.520;13.494;2022-12-18T07:59:44;-4.40;1.00
9768;DHT22;4923;52.520;13.494;2022-12-18T08:02:31;-4.40;1.00
9768;DHT22;4923;52.520;13.494;2022-12-18T08:05:19;-4.30;1.00
9768;DHT22;4923;52.520;13.494;2022-12-18T08:08:07;-4.40;1.00
9768;DHT22;4923;52.520;13.494;2022-12-18T08:10:54;-4.20;1.00
9768;DHT22;4923;52.520;13.494;2022-12-18T08:13:41;-4.20;1.00
9768;DHT22;4923;52.520;13.494;2022-12-18T08:16:28;-4.20;1.00
9768;DHT22;4923;52.520;13.494;2022-12-18T08:19:15;-4.10;1.00
9768;DHT22;4923;52.520;13.494;2022-12-18T08:22:04;-4.00;1.00
9768;DHT22;4923;52.520;13.494;2022-12-18T08:24:50;-4.10;1.00
9768;DHT22;4923;52.520;13.494;2022-12-18T08:27:37;-4.00;1.00
9768;DHT22;4923;52.520;13.494;2022-12-18T08:30:24;-4.00;1.00
9768;DHT22;4923;52.520;13.494;2022-12-18T08:33:12;-4.00;1.00
9768;DHT22;4923;52.520;13.494;2022-12-18T08:35:59;-3.80;1.00
9768;DHT22;4923;52.520;13.494;2022-12-18T08:38:47;-3.80;1.00
9768;DHT22;4923;52.520;13.494;2022-12-18T08:41:34;-3.80;1.00
9768;DHT22;4923;52.520;13.494;2022-12-18T08:44:21;-3.80;1.00
9768;DHT22;4923;52.520;13.494;2022-12-18T08:47:26;-3.80;1.00
9768;DHT22;4923;52.520;13.494;2022-12-18T08:50:13;-3.70;1.00
9768;DHT22;4923;52.520;13.494;2022-12-18T08:53:00;-3.50;1.00
9768;DHT22;4923;52.520;13.494;2022-12-18T08:55:49;-3.50;1.00
9768;DHT22;4923;52.520;13.494;2022-12-18T08:58:36;-3.60;1.00
9768;DHT22;4923;52.520;13.494;2022-12-18T09:01:23;-3.70;1.00
9768;DHT22;4923;52.520;13.494;2022-12-18T09:04:11;-3.70;1.00
9768;DHT22;4923;52.520;13.494;2022-12-18T09:06:58;-3.70;1.00
9768;DHT22;4923;52.520;13.494;2022-12-18T09:09:45;-3.70;1.00
9768;DHT22;4923;52.520;13.494;2022-12-18T09:12:33;-3.70;1.00
9768;DHT22;4923;52.520;13.494;2022-12-18T09:15:19;-3.60;1.00
9768;DHT22;4923;52.520;13.494;2022-12-18T09:18:06;-3.50;1.00
9768;DHT22;4923;52.520;13.494;2022-12-18T09:20:54;-3.40;1.00
9768;DHT22;4923;52.520;13.494;2022-12-18T09:23:41;-3.50;1.00
9768;DHT22;4923;52.520;13.494;2022-12-18T09:26:28;-3.40;1.00
9768;DHT22;4923;52.520;13.494;2022-12-18T09:29:17;-3.30;1.00
9768;DHT22;4923;52.520;13.494;2022-12-18T09:32:04;-3.30;1.00
9768;DHT22;4923;52.520;13.494;2022-12-18T09:34:51;-3.20;1.00
9768;DHT22;4923;52.520;13.494;2022-12-18T09:37:38;-3.20;1.00
9768;DHT22;4923;52.520;13.494;2022-12-18T09:40:32;-3.10;1.00
9768;DHT22;4923;52.520;13.494;2022-12-18T09:43:24;-3.10;1.00
9768;DHT22;4923;52.520;13.494;2022-12-18T09:46:24;-2.90;1.00
9768;DHT22;4923;52.520;13.494;2022-12-18T09:49:16;-2.90;1.00
9768;DHT22;4923;52.520;13.494;2022-12-18T09:52:09;-2.90;1.00
9768;DHT22;4923;52.520;13.494;2022-12-18T09:55:00;-2.80;1.00
9768;DHT22;4923;52.520;13.494;2022-12-18T09:57:55;-2.80;1.00
9768;DHT22;4923;52.520;13.494;2022-12-18T10:00:43;-2.70;1.00
9768;DHT22;4923;52.520;13.494;2022-12-18T10:03:32;-2.70;1.00
9768;DHT22;4923;52.520;13.494;2022-12-18T10:06:22;-2.60;1.00
9768;DHT22;4923;52.520;13.494;2022-12-18T10:09:19;-2.60;1.00
9768;DHT22;4923;52.520;13.494;2022-12-18T10:12:13;-2.60;1.00
9768;DHT22;4923;52.520;13.494;2022-12-18T10:15:05;-2.50;1.00
9768;DHT22;4923;52.520;13.494;2022-12-18T10:17:56;-2.40;1.00
9768;DHT22;4923;52.520;13.494;2022-12-18T10:20:49;-2.50;1.00
9768;DHT22;4923;52.520;13.494;2022-12-18T10:23:44;-2.30;1.00
9768;DHT22;4923;52.520;13.494;2022-12-18T10:26:32;-2.30;1.00
9768;DHT22;4923;52.520;13.494;2022-12-18T10:29:19;-2.20;1.00
9768;DHT22;4923;52.520;13.494;2022-12-18T10:32:07;-2.10;1.00
9768;DHT22;4923;52.520;13.494;2022-12-18T10:34:57;-2.20;1.00
9768;DHT22;4923;52.520;13.494;2022-12-18T10:40:50;-2.10;1.00
9768;DHT22;4923;52.520;13.494;2022-12-18T10:43:38;-2.20;1.00
9768;DHT22;4923;52.520;13.494;2022-12-18T10:46:26;-2.20;1.00
9768;DHT22;4923;52.520;13.494;2022-12-18T10:49:22;-2.10;1.00
9768;DHT22;4923;52.520;13.494;2022-12-18T10:52:15;-2.00;1.00
9768;DHT22;4923;52.520;13.494;2022-12-18T10:55:04;-1.90;1.00
9768;DHT22;4923;52.520;13.494;2022-12-18T10:57:53;-1.90;1.00
9768;DHT22;4923;52.520;13.494;2022-12-18T11:00:39;-1.90;1.00
9768;DHT22;4923;52.520;13.494;2022-12-18T11:03:31;-1.90;1.00
9768;DHT22;4923;52.520;13.494;2022-12-18T11:06:22;-2.00;1.00
9768;DHT22;4923;52.520;13.494;2022-12-18T11:09:19;-1.90;1.00
9768;DHT22;4923;52.520;13.494;2022-12-18T11:12:18;-1.90;1.00
9768;DHT22;4923;52.520;13.494;2022-12-18T11:15:15;-2.10;1.00
9768;DHT22;4923;52.520;13.494;2022-12-18T11:18:03;-2.20;1.00
9768;DHT22;4923;52.520;13.494;2022-12-18T11:20:52;-2.10;1.00
9768;DHT22;4923;52.520;13.494;2022-12-18T11:23:46;-2.10;1.00
9768;DHT22;4923;52.520;13.494;2022-12-18T11:26:35;-2.10;1.00
9768;DHT22;4923;52.520;13.494;2022-12-18T11:29:33;-2.10;1.00
9768;DHT22;4923;52.520;13.494;2022-12-18T11:32:30;-2.10;1.00
9768;DHT22;4923;52.520;13.494;2022-12-18T11:35:21;-2.20;1.00
9768;DHT22;4923;52.520;13.494;2022-12-18T11:38:18;-2.10;1.00
9768;DHT22;4923;52.520;13.494;2022-12-18T11:41:18;-2.10;1.00
9768;DHT22;4923;52.520;13.494;2022-12-18T11:44:09;-2.00;1.00
9768;DHT22;4923;52.520;13.494;2022-12-18T11:47:01;-2.10;1.00
9768;DHT22;4923;52.520;13.494;2022-12-18T11:49:51;-2.00;1.00
9768;DHT22;4923;52.520;13.494;2022-12-18T11:52:40;-2.10;1.00
9768;DHT22;4923;52.520;13.494;2022-12-18T11:55:36;-2.00;1.00
9768;DHT22;4923;52.520;13.494;2022-12-18T11:58:40;-2.00;1.00
9768;DHT22;4923;52.520;13.494;2022-12-18T12:01:38;-2.00;1.00
9768;DHT22;4923;52.520;13.494;2022-12-18T12:04:41;-2.10;1.00
9768;DHT22;4923;52.520;13.494;2022-12-18T12:07:40;-2.10;1.00
9768;DHT22;4923;52.520;13.494;2022-12-18T12:10:39;-2.20;1.00
9768;DHT22;4923;52.520;13.494;2022-12-18T12:13:40;-2.10;1.00
9768;DHT22;4923;52.520;13.494;2022-12-18T12:16:32;-2.10;1.00
9768;DHT22;4923;52.520;13.494;2022-12-18T12:19:31;-2.10;1.00
9768;DHT22;4923;52.520;13.494;2022-12-18T12:22:25;-2.00;1.00
9768;DHT22;4923;52.520;13.494;2022-12-18T12:25:29;-1.90;1.00
9768;DHT22;4923;52.520;13.494;2022-12-18T12:28:31;-1.90;1.00
9768;DHT22;4923;52.520;13.494;2022-12-18T12:31:26;-2.00;1.00
9768;DHT22;4923;52.520;13.494;2022-12-18T12:34:18;-1.80;1.00
9768;DHT22;4923;52.520;13.494;2022-12-18T12:37:19;-1.80;1.00
9768;DHT22;4923;52.520;13.494;2022-12-18T12:40:11;-1.70;1.00
9768;DHT22;4923;52.520;13.494;2022-12-18T12:43:05;-1.70;1.00
9768;DHT22;4923;52.520;13.494;2022-12-18T12:46:05;-1.70;1.00
9768;DHT22;4923;52.520;13.494;2022-12-18T12:48:53;-1.90;1.00
9768;DHT22;4923;52.520;13.494;2022-12-18T12:51:43;-1.80;1.00
9768;DHT22;4923;52.520;13.494;2022-12-18T12:54:32;-1.90;1.00
9768;DHT22;4923;52.520;13.494;2022-12-18T12:57:24;-1.80;1.00
9768;DHT22;4923;52.520;13.494;2022-12-18T13:00:16;-1.80;1.00
9768;DHT22;4923;52.520;13.494;2022-12-18T13:03:12;-1.80;1.00
9768;DHT22;4923;52.520;13.494;2022-12-18T13:06:08;-1.60;1.00
9768;DHT22;4923;52.520;13.494;2022-12-18T13:08:57;-1.60;1.00
9768;DHT22;4923;52.520;13.494;2022-12-18T13:11:45;-1.70;1.00
9768;DHT22;4923;52.520;13.494;2022-12-18T13:14:50;-1.70;1.00
9768;DHT22;4923;52.520;13.494;2022-12-18T13:17:38;-1.90;1.00
9768;DHT22;4923;52.520;13.494;2022-12-18T13:20:33;-1.80;1.00
9768;DHT22;4923;52.520;13.494;2022-12-18T13:23:38;-1.80;1.00
9768;DHT22;4923;52.520;13.494;2022-12-18T13:26:30;-1.80;1.00
9768;DHT22;4923;52.520;13.494;2022-12-18T13:29:40;-1.70;1.00
9768;DHT22;4923;52.520;13.494;2022-12-18T13:32:27;-1.70;1.00
9768;DHT22;4923;52.520;13.494;2022-12-18T13:35:40;-1.60;1.00
9768;DHT22;4923;52.520;13.494;2022-12-18T13:38:33;-1.70;1.00
9768;DHT22;4923;52.520;13.494;2022-12-18T13:41:26;-1.70;1.00
9768;DHT22;4923;52.520;13.494;2022-12-18T13:44:24;-1.70;1.00
9768;DHT22;4923;52.520;13.494;2022-12-18T13:47:28;-1.80;1.00
9768;DHT22;4923;52.520;13.494;2022-12-18T13:50:25;-1.70;1.00
9768;DHT22;4923;52.520;13.494;2022-12-18T13:53:19;-1.80;1.00
9768;DHT22;4923;52.520;13.494;2022-12-18T13:56:07;-2.00;1.00
9768;DHT22;4923;52.520;13.494;2022-12-18T13:59:08;-2.00;1.00
9768;DHT22;4923;52.520;13.494;2022-12-18T14:01:58;-2.10;1.00
9768;DHT22;4923;52.520;13.494;2022-12-18T14:04:46;-2.20;1.00
9768;DHT22;4923;52.520;13.494;2022-12-18T14:07:33;-2.30;1.00
9768;DHT22;4923;52.520;13.494;2022-12-18T14:10:23;-2.40;1.00
9768;DHT22;4923;52.520;13.494;2022-12-18T14:13:15;-2.30;1.00
9768;DHT22;4923;52.520;13.494;2022-12-18T14:16:04;-2.40;1.00
9768;DHT22;4923;52.520;13.494;2022-12-18T14:18:53;-2.30;1.00
9768;DHT22;4923;52.520;13.494;2022-12-18T14:21:46;-2.30;1.00
9768;DHT22;4923;52.520;13.494;2022-12-18T14:24:33;-2.20;1.00
9768;DHT22;4923;52.520;13.494;2022-12-18T14:27:23;-2.20;1.00
9768;DHT22;4923;52.520;13.494;2022-12-18T14:30:31;-2.10;1.00
9768;DHT22;4923;52.520;13.494;2022-12-18T14:33:20;-2.20;1.00
9768;DHT22;4923;52.520;13.494;2022-12-18T14:36:15;-2.30;1.00
9768;DHT22;4923;52.520;13.494;2022-12-18T14:39:03;-2.40;1.00
9768;DHT22;4923;52.520;13.494;2022-12-18T14:41:49;-2.40;1.00
9768;DHT22;4923;52.520;13.494;2022-12-18T14:44:38;-2.40;1.00
9768;DHT22;4923;52.520;13.494;2022-12-18T14:47:24;-2.40;1.00
9768;DHT22;4923;52.520;13.494;2022-12-18T14:50:13;-2.30;1.00
9768;DHT22;4923;52.520;13.494;2022-12-18T14:53:00;-2.30;1.00
9768;DHT22;4923;52.520;13.494;2022-12-18T14:55:48;-2.30;1.00
9768;DHT22;4923;52.520;13.494;2022-12-18T14:58:35;-2.40;1.00
9768;DHT22;4923;52.520;13.494;2022-12-18T15:01:25;-2.40;1.00
9768;DHT22;4923;52.520;13.494;2022-12-18T15:04:25;-2.50;1.00
9768;DHT22;4923;52.520;13.494;2022-12-18T15:07:14;-2.50;1.00
9768;DHT22;4923;52.520;13.494;2022-12-18T15:10:10;-2.60;1.00
9768;DHT22;4923;52.520;13.494;2022-12-18T15:13:09;-2.50;1.00
9768;DHT22;4923;52.520;13.494;2022-12-18T15:15:57;-2.70;1.00
9768;DHT22;4923;52.520;13.494;2022-12-18T15:18:46;-2.70;1.00
9768;DHT22;4923;52.520;13.494;2022-12-18T15:21:33;-2.60;1.00
9768;DHT22;4923;52.520;13.494;2022-12-18T15:24:24;-2.50;1.00
9768;DHT22;4923;52.520;13.494;2022-12-18T15:27:21;-2.50;1.00
9768;DHT22;4923;52.520;13.494;2022-12-18T15:30:20;-2.60;1.00
9768;DHT22;4923;52.520;13.494;2022-12-18T15:33:23;-2.60;1.00
9768;DHT22;4923;52.520;13.494;2022-12-18T15:36:14;-2.70;1.00
9768;DHT22;4923;52.520;13.494;2022-12-18T15:39:01;-2.80;1.00
9768;DHT22;4923;52.520;13.494;2022-12-18T15:41:48;-2.70;1.00
9768;DHT22;4923;52.520;13.494;2022-12-18T15:44:53;-2.70;1.00
9768;DHT22;4923;52.520;13.494;2022-12-18T15:47:40;-2.70;1.00
9768;DHT22;4923;52.520;13.494;2022-12-18T15:50:28;-2.70;1.00
9768;DHT22;4923;52.520;13.494;2022-12-18T15:53:16;-2.70;1.00
9768;DHT22;4923;52.520;13.494;2022-12-18T15:56:07;-2.80;1.00
9768;DHT22;4923;52.520;13.494;2022-12-18T15:59:14;-2.80;1.00
9768;DHT22;4923;52.520;13.494;2022-12-18T16:02:02;-2.70;1.00
9768;DHT22;4923;52.520;13.494;2022-12-18T16:04:49;-2.80;1.00
9768;DHT22;4923;52.520;13.494;2022-12-18T16:07:36;-2.80;1.00
9768;DHT22;4923;52.520;13.494;2022-12-18T16:10:25;-2.80;1.00
9768;DHT22;4923;52.520;13.494;2022-12-18T16:13:16;-2.70;1.00
9768;DHT22;4923;52.520;13.494;2022-12-18T16:16:07;-2.70;1.00
9768;DHT22;4923;52.520;13.494;2022-12-18T16:18:54;-2.70;1.00
9768;DHT22;4923;52.520;13.494;2022-12-18T16:21:41;-2.70;1.00
9768;DHT22;4923;52.520;13.494;2022-12-18T16:24:30;-2.70;1.00
9768;DHT22;4923;52.520;13.494;2022-12-18T16:27:19;-2.60;1.00
9768;DHT22;4923;52.520;13.494;2022-12-18T16:30:08;-2.70;1.00
9768;DHT22;4923;52.520;13.494;2022-12-18T16:32:58;-2.60;1.00
9768;DHT22;4923;52.520;13.494;2022-12-18T16:35:51;-2.50;1.00
9768;DHT22;4923;52.520;13.494;2022-12-18T16:38:38;-2.50;1.00
9768;DHT22;4923;52.520;13.494;2022-12-18T16:41:25;-2.50;1.00
9768;DHT22;4923;52.520;13.494;2022-12-18T16:44:19;-2.80;1.00
9768;DHT22;4923;52.520;13.494;2022-12-18T16:47:06;-2.90;1.00
9768;DHT22;4923;52.520;13.494;2022-12-18T16:49:53;-2.90;1.00
9768;DHT22;4923;52.520;13.494;2022-12-18T16:52:40;-2.80;1.00
9768;DHT22;4923;52.520;13.494;2022-12-18T16:55:27;-2.90;1.00
9768;DHT22;4923;52.520;13.494;2022-12-18T16:58:14;-3.00;1.00
9768;DHT22;4923;52.520;13.494;2022-12-18T17:01:06;-3.00;1.00
9768;DHT22;4923;52.520;13.494;2022-12-18T17:03:55;-3.00;1.00
9768;DHT22;4923;52.520;13.494;2022-12-18T17:06:43;-3.00;1.00
9768;DHT22;4923;52.520;13.494;2022-12-18T17:09:36;-3.10;1.00
9768;DHT22;4923;52.520;13.494;2022-12-18T17:12:23;-3.10;1.00
9768;DHT22;4923;52.520;13.494;2022-12-18T17:15:11;-3.10;1.00
9768;DHT22;4923;52.520;13.494;2022-12-18T17:18:00;-3.20;1.00
9768;DHT22;4923;52.520;13.494;2022-12-18T17:20:47;-3.30;1.00
9768;DHT22;4923;52.520;13.494;2022-12-18T17:23:34;-3.40;1.00
9768;DHT22;4923;52.520;13.494;2022-12-18T17:26:20;-3.50;1.00
9768;DHT22;4923;52.520;13.494;2022-12-18T17:29:08;-3.50;1.00
9768;DHT22;4923;52.520;13.494;2022-12-18T17:31:55;-3.50;1.00
9768;DHT22;4923;52.520;13.494;2022-12-18T17:34:43;-3.60;1.00
9768;DHT22;4923;52.520;13.494;2022-12-18T17:37:30;-3.70;1.00
9768;DHT22;4923;52.520;13.494;2022-12-18T17:40:17;-3.70;1.00
9768;DHT22;4923;52.520;13.494;2022-12-18T17:43:04;-3.80;1.00
9768;DHT22;4923;52.520;13.494;2022-12-18T17:45:51;-3.90;1.00
9768;DHT22;4923;52.520;13.494;2022-12-18T17:48:38;-3.90;1.00
9768;DHT22;4923;52.520;13.494;2022-12-18T17:51:27;-3.90;1.00
9768;DHT22;4923;52.520;13.494;2022-12-18T17:54:13;-3.90;1.00
9768;DHT22;4923;52.520;13.494;2022-12-18T17:57:00;-4.00;1.00
9768;DHT22;4923;52.520;13.494;2022-12-18T17:59:47;-4.00;1.00
9768;DHT22;4923;52.520;13.494;2022-12-18T18:02:34;-4.00;1.00
9768;DHT22;4923;52.520;13.494;2022-12-18T18:05:21;-4.00;1.00
9768;DHT22;4923;52.520;13.494;2022-12-18T18:08:09;-4.00;1.00
9768;DHT22;4923;52.520;13.494;2022-12-18T18:10:56;-4.00;1.00
9768;DHT22;4923;52.520;13.494;2022-12-18T18:14:05;-4.00;9.60
9768;DHT22;4923;52.520;13.494;2022-12-18T18:16:51;-4.00;2.80
9768;DHT22;4923;52.520;13.494;2022-12-18T18:19:38;-4.10;4.60
9768;DHT22;4923;52.520;13.494;2022-12-18T18:22:26;-4.10;4.60
9768;DHT22;4923;52.520;13.494;2022-12-18T18:25:14;-4.10;14.50
9768;DHT22;4923;52.520;13.494;2022-12-18T18:28:01;-4.00;16.00
9768;DHT22;4923;52.520;13.494;2022-12-18T18:30:48;-4.10;17.20
9768;DHT22;4923;52.520;13.494;2022-12-18T18:33:35;-4.20;18.70